Terminal Aerodrome Forecast
Issued by NWS

Home | Current Version | Previous Version | Text Only | Print | Product List | Glossary On
Versions: 1 2 3 4 5 6 7 8 9 10 11 12 13 14 15 16 17 18 19 20 21 22 23 24 25 26
000
FTUS43 KAPX 031024 AAB
TAFAPN
TAF AMD
KAPN 031024Z 0310/0406 00000KT 6SM BR FEW110
     FM031400 VRB04KT P6SM VCSH SCT050 BKN120
     FM031600 VRB05KT 5SM -SHRA OVC035
     FM031900 10007KT P6SM VCTS BKN040CB BKN080
     FM040100 00000KT 5SM BR SCT040=

USA.gov is the U.S. government's official web portal to all federal, state and local government web resources and services.